sensor_id;sensor_type;location;lat;lon;timestamp;P1;durP1;ratioP1;P2;durP2;ratioP2
35897;SDS011;21997;47.118;15.346;2023-08-06T00:01:44;1.00;;;0.70;;
35897;SDS011;21997;47.118;15.346;2023-08-06T00:04:10;1.03;;;0.50;;
35897;SDS011;21997;47.118;15.346;2023-08-06T00:06:35;1.80;;;0.50;;
35897;SDS011;21997;47.118;15.346;2023-08-06T00:09:00;0.30;;;0.20;;
35897;SDS011;21997;47.118;15.346;2023-08-06T00:11:26;0.30;;;0.30;;
35897;SDS011;21997;47.118;15.346;2023-08-06T00:13:51;2.57;;;0.27;;
35897;SDS011;21997;47.118;15.346;2023-08-06T00:16:17;0.50;;;0.40;;
35897;SDS011;21997;47.118;15.346;2023-08-06T00:18:42;1.17;;;0.40;;
35897;SDS011;21997;47.118;15.346;2023-08-06T00:21:07;0.97;;;0.23;;
35897;SDS011;21997;47.118;15.346;2023-08-06T00:23:33;0.37;;;0.30;;
35897;SDS011;21997;47.118;15.346;2023-08-06T00:25:58;0.73;;;0.40;;
35897;SDS011;21997;47.118;15.346;2023-08-06T00:28:24;1.40;;;0.47;;
35897;SDS011;21997;47.118;15.346;2023-08-06T00:30:55;0.40;;;0.37;;
35897;SDS011;21997;47.118;15.346;2023-08-06T00:33:21;0.73;;;0.70;;
35897;SDS011;21997;47.118;15.346;2023-08-06T00:35:47;0.50;;;0.33;;
35897;SDS011;21997;47.118;15.346;2023-08-06T00:38:13;0.80;;;0.53;;
35897;SDS011;21997;47.118;15.346;2023-08-06T00:40:38;0.43;;;0.43;;
35897;SDS011;21997;47.118;15.346;2023-08-06T00:43:04;0.57;;;0.50;;
35897;SDS011;21997;47.118;15.346;2023-08-06T00:45:29;0.60;;;0.50;;
35897;SDS011;21997;47.118;15.346;2023-08-06T00:47:55;0.70;;;0.50;;
35897;SDS011;21997;47.118;15.346;2023-08-06T00:50:21;0.63;;;0.47;;
35897;SDS011;21997;47.118;15.346;2023-08-06T00:52:48;1.57;;;0.50;;
35897;SDS011;21997;47.118;15.346;2023-08-06T00:55:14;0.97;;;0.37;;
35897;SDS011;21997;47.118;15.346;2023-08-06T00:57:40;0.43;;;0.30;;
35897;SDS011;21997;47.118;15.346;2023-08-06T01:00:06;0.43;;;0.43;;
35897;SDS011;21997;47.118;15.346;2023-08-06T01:02:32;0.23;;;0.20;;
35897;SDS011;21997;47.118;15.346;2023-08-06T01:04:58;0.60;;;0.20;;
35897;SDS011;21997;47.118;15.346;2023-08-06T01:08:09;0.30;;;0.30;;
35897;SDS011;21997;47.118;15.346;2023-08-06T01:13:46;1.53;;;0.20;;
35897;SDS011;21997;47.118;15.346;2023-08-06T01:16:18;3.80;;;0.27;;
35897;SDS011;21997;47.118;15.346;2023-08-06T01:18:44;0.10;;;0.10;;
35897;SDS011;21997;47.118;15.346;2023-08-06T01:21:18;0.20;;;0.20;;
35897;SDS011;21997;47.118;15.346;2023-08-06T01:23:43;0.33;;;0.30;;
35897;SDS011;21997;47.118;15.346;2023-08-06T01:29:12;0.10;;;0.10;;
35897;SDS011;21997;47.118;15.346;2023-08-06T01:31:42;0.20;;;0.20;;
35897;SDS011;21997;47.118;15.346;2023-08-06T01:34:17;0.47;;;0.20;;
35897;SDS011;21997;47.118;15.346;2023-08-06T01:36:43;1.63;;;0.40;;
35897;SDS011;21997;47.118;15.346;2023-08-06T01:39:08;0.70;;;0.50;;
35897;SDS011;21997;47.118;15.346;2023-08-06T01:41:34;0.70;;;0.60;;
35897;SDS011;21997;47.118;15.346;2023-08-06T01:43:59;0.57;;;0.40;;
35897;SDS011;21997;47.118;15.346;2023-08-06T01:46:25;0.77;;;0.50;;
35897;SDS011;21997;47.118;15.346;2023-08-06T01:48:50;0.93;;;0.67;;
35897;SDS011;21997;47.118;15.346;2023-08-06T01:51:16;0.47;;;0.40;;
35897;SDS011;21997;47.118;15.346;2023-08-06T01:53:41;0.53;;;0.50;;
35897;SDS011;21997;47.118;15.346;2023-08-06T01:56:06;1.47;;;0.90;;
35897;SDS011;21997;47.118;15.346;2023-08-06T01:58:32;2.23;;;0.67;;
35897;SDS011;21997;47.118;15.346;2023-08-06T02:00:57;0.60;;;0.50;;
35897;SDS011;21997;47.118;15.346;2023-08-06T02:03:23;1.03;;;0.60;;
35897;SDS011;21997;47.118;15.346;2023-08-06T02:05:48;2.13;;;0.57;;
35897;SDS011;21997;47.118;15.346;2023-08-06T02:08:13;0.60;;;0.50;;
35897;SDS011;21997;47.118;15.346;2023-08-06T02:10:39;0.43;;;0.43;;
35897;SDS011;21997;47.118;15.346;2023-08-06T02:13:04;1.57;;;0.30;;
35897;SDS011;21997;47.118;15.346;2023-08-06T02:15:29;0.30;;;0.30;;
35897;SDS011;21997;47.118;15.346;2023-08-06T02:17:55;0.50;;;0.33;;
35897;SDS011;21997;47.118;15.346;2023-08-06T02:20:20;0.30;;;0.30;;
35897;SDS011;21997;47.118;15.346;2023-08-06T02:22:46;0.23;;;0.23;;
35897;SDS011;21997;47.118;15.346;2023-08-06T02:25:11;2.77;;;0.80;;
35897;SDS011;21997;47.118;15.346;2023-08-06T02:27:37;0.50;;;0.50;;
35897;SDS011;21997;47.118;15.346;2023-08-06T02:30:03;0.40;;;0.40;;
35897;SDS011;21997;47.118;15.346;2023-08-06T02:32:29;1.43;;;0.37;;
35897;SDS011;21997;47.118;15.346;2023-08-06T02:34:56;0.93;;;0.40;;
35897;SDS011;21997;47.118;15.346;2023-08-06T02:37:22;0.60;;;0.40;;
35897;SDS011;21997;47.118;15.346;2023-08-06T02:39:47;1.20;;;0.50;;
35897;SDS011;21997;47.118;15.346;2023-08-06T02:42:12;0.40;;;0.40;;
35897;SDS011;21997;47.118;15.346;2023-08-06T02:44:38;2.93;;;0.50;;
35897;SDS011;21997;47.118;15.346;2023-08-06T02:47:03;0.43;;;0.40;;
35897;SDS011;21997;47.118;15.346;2023-08-06T02:49:29;0.30;;;0.30;;
35897;SDS011;21997;47.118;15.346;2023-08-06T02:51:54;0.57;;;0.40;;
35897;SDS011;21997;47.118;15.346;2023-08-06T02:54:20;1.70;;;0.40;;
35897;SDS011;21997;47.118;15.346;2023-08-06T02:56:45;0.37;;;0.30;;
35897;SDS011;21997;47.118;15.346;2023-08-06T02:59:14;2.17;;;0.63;;
35897;SDS011;21997;47.118;15.346;2023-08-06T03:01:39;0.30;;;0.30;;
35897;SDS011;21997;47.118;15.346;2023-08-06T03:04:05;0.10;;;0.10;;
35897;SDS011;21997;47.118;15.346;2023-08-06T03:06:30;0.30;;;0.27;;
35897;SDS011;21997;47.118;15.346;2023-08-06T03:08:56;1.33;;;0.30;;
35897;SDS011;21997;47.118;15.346;2023-08-06T03:11:21;0.20;;;0.20;;
35897;SDS011;21997;47.118;15.346;2023-08-06T03:13:47;0.20;;;0.20;;
35897;SDS011;21997;47.118;15.346;2023-08-06T03:16:14;1.40;;;0.20;;
35897;SDS011;21997;47.118;15.346;2023-08-06T03:18:39;0.67;;;0.20;;
35897;SDS011;21997;47.118;15.346;2023-08-06T03:21:04;0.67;;;0.30;;
35897;SDS011;21997;47.118;15.346;2023-08-06T03:23:30;0.67;;;0.40;;
35897;SDS011;21997;47.118;15.346;2023-08-06T03:25:55;0.20;;;0.20;;
35897;SDS011;21997;47.118;15.346;2023-08-06T03:28:21;0.20;;;0.20;;
35897;SDS011;21997;47.118;15.346;2023-08-06T03:30:47;1.47;;;0.20;;
35897;SDS011;21997;47.118;15.346;2023-08-06T03:33:12;0.47;;;0.47;;
35897;SDS011;21997;47.118;15.346;2023-08-06T03:35:38;0.70;;;0.40;;
35897;SDS011;21997;47.118;15.346;2023-08-06T03:38:03;0.50;;;0.50;;
35897;SDS011;21997;47.118;15.346;2023-08-06T03:40:28;0.50;;;0.50;;
35897;SDS011;21997;47.118;15.346;2023-08-06T03:42:54;0.50;;;0.40;;
35897;SDS011;21997;47.118;15.346;2023-08-06T03:45:22;1.20;;;0.60;;
35897;SDS011;21997;47.118;15.346;2023-08-06T03:47:48;1.90;;;0.70;;
35897;SDS011;21997;47.118;15.346;2023-08-06T03:50:13;0.40;;;0.40;;
35897;SDS011;21997;47.118;15.346;2023-08-06T03:52:39;0.60;;;0.40;;
35897;SDS011;21997;47.118;15.346;2023-08-06T03:55:04;0.77;;;0.60;;
35897;SDS011;21997;47.118;15.346;2023-08-06T03:57:31;0.47;;;0.47;;
35897;SDS011;21997;47.118;15.346;2023-08-06T03:59:56;0.50;;;0.40;;
35897;SDS011;21997;47.118;15.346;2023-08-06T04:02:22;1.60;;;0.50;;
35897;SDS011;21997;47.118;15.346;2023-08-06T04:04:47;1.70;;;0.60;;
35897;SDS011;21997;47.118;15.346;2023-08-06T04:07:13;0.47;;;0.47;;
35897;SDS011;21997;47.118;15.346;2023-08-06T04:09:55;1.43;;;0.50;;
35897;SDS011;21997;47.118;15.346;2023-08-06T04:12:22;0.50;;;0.50;;
35897;SDS011;21997;47.118;15.346;2023-08-06T04:14:48;0.97;;;0.53;;
35897;SDS011;21997;47.118;15.346;2023-08-06T04:17:13;1.53;;;0.60;;
35897;SDS011;21997;47.118;15.346;2023-08-06T04:19:38;0.73;;;0.60;;
35897;SDS011;21997;47.118;15.346;2023-08-06T04:22:04;2.40;;;0.80;;
35897;SDS011;21997;47.118;15.346;2023-08-06T04:24:29;0.80;;;0.70;;
35897;SDS011;21997;47.118;15.346;2023-08-06T04:26:55;1.00;;;0.90;;
35897;SDS011;21997;47.118;15.346;2023-08-06T04:29:20;1.23;;;0.50;;
35897;SDS011;21997;47.118;15.346;2023-08-06T04:31:45;0.90;;;0.60;;
35897;SDS011;21997;47.118;15.346;2023-08-06T04:34:11;0.70;;;0.63;;
35897;SDS011;21997;47.118;15.346;2023-08-06T04:36:36;1.63;;;0.97;;
35897;SDS011;21997;47.118;15.346;2023-08-06T04:39:03;3.03;;;0.70;;
35897;SDS011;21997;47.118;15.346;2023-08-06T04:41:29;0.63;;;0.63;;
35897;SDS011;21997;47.118;15.346;2023-08-06T04:43:54;1.40;;;0.70;;
35897;SDS011;21997;47.118;15.346;2023-08-06T04:46:21;0.80;;;0.70;;
35897;SDS011;21997;47.118;15.346;2023-08-06T04:48:47;1.23;;;0.70;;
35897;SDS011;21997;47.118;15.346;2023-08-06T04:51:12;1.10;;;0.90;;
35897;SDS011;21997;47.118;15.346;2023-08-06T04:53:38;0.90;;;0.90;;
35897;SDS011;21997;47.118;15.346;2023-08-06T04:56:03;1.77;;;0.93;;
35897;SDS011;21997;47.118;15.346;2023-08-06T04:58:29;2.70;;;0.80;;
35897;SDS011;21997;47.118;15.346;2023-08-06T05:00:54;0.80;;;0.80;;
35897;SDS011;21997;47.118;15.346;2023-08-06T05:03:20;1.33;;;1.10;;
35897;SDS011;21997;47.118;15.346;2023-08-06T05:05:45;1.10;;;1.00;;
35897;SDS011;21997;47.118;15.346;2023-08-06T05:08:14;12.30;;;1.53;;
35897;SDS011;21997;47.118;15.346;2023-08-06T05:10:47;1.93;;;1.23;;
35897;SDS011;21997;47.118;15.346;2023-08-06T05:13:12;1.53;;;1.30;;
35897;SDS011;21997;47.118;15.346;2023-08-06T05:15:38;1.20;;;1.10;;
35897;SDS011;21997;47.118;15.346;2023-08-06T05:18:07;1.30;;;1.20;;
35897;SDS011;21997;47.118;15.346;2023-08-06T05:20:35;1.67;;;1.33;;
35897;SDS011;21997;47.118;15.346;2023-08-06T05:23:02;1.23;;;1.13;;
35897;SDS011;21997;47.118;15.346;2023-08-06T05:25:27;1.17;;;0.70;;
35897;SDS011;21997;47.118;15.346;2023-08-06T05:27:52;0.70;;;0.70;;
35897;SDS011;21997;47.118;15.346;2023-08-06T05:30:18;0.70;;;0.70;;
35897;SDS011;21997;47.118;15.346;2023-08-06T05:32:43;1.03;;;0.60;;
35897;SDS011;21997;47.118;15.346;2023-08-06T05:35:09;2.10;;;1.10;;
35897;SDS011;21997;47.118;15.346;2023-08-06T05:37:34;0.97;;;0.80;;
35897;SDS011;21997;47.118;15.346;2023-08-06T05:39:59;0.93;;;0.60;;
35897;SDS011;21997;47.118;15.346;2023-08-06T05:42:26;3.30;;;0.70;;
35897;SDS011;21997;47.118;15.346;2023-08-06T05:44:51;1.23;;;0.80;;
35897;SDS011;21997;47.118;15.346;2023-08-06T05:47:17;1.07;;;0.53;;
35897;SDS011;21997;47.118;15.346;2023-08-06T05:49:42;0.80;;;0.67;;
35897;SDS011;21997;47.118;15.346;2023-08-06T05:52:08;0.73;;;0.57;;
35897;SDS011;21997;47.118;15.346;2023-08-06T05:54:33;0.60;;;0.50;;
35897;SDS011;21997;47.118;15.346;2023-08-06T05:56:59;0.73;;;0.60;;
35897;SDS011;21997;47.118;15.346;2023-08-06T05:59:24;1.07;;;0.63;;
35897;SDS011;21997;47.118;15.346;2023-08-06T06:01:50;1.03;;;0.70;;
35897;SDS011;21997;47.118;15.346;2023-08-06T06:04:15;2.00;;;1.00;;
35897;SDS011;21997;47.118;15.346;2023-08-06T06:06:41;1.27;;;0.70;;
35897;SDS011;21997;47.118;15.346;2023-08-06T06:09:07;0.67;;;0.67;;
35897;SDS011;21997;47.118;15.346;2023-08-06T06:11:32;1.30;;;1.07;;
35897;SDS011;21997;47.118;15.346;2023-08-06T06:13:58;1.57;;;1.20;;
35897;SDS011;21997;47.118;15.346;2023-08-06T06:16:25;6.13;;;1.20;;
35897;SDS011;21997;47.118;15.346;2023-08-06T06:18:51;1.23;;;1.10;;
35897;SDS011;21997;47.118;15.346;2023-08-06T06:21:16;1.53;;;1.17;;
35897;SDS011;21997;47.118;15.346;2023-08-06T06:23:42;1.73;;;1.00;;
35897;SDS011;21997;47.118;15.346;2023-08-06T06:26:10;1.10;;;0.90;;
35897;SDS011;21997;47.118;15.346;2023-08-06T06:31:45;0.53;;;0.53;;
35897;SDS011;21997;47.118;15.346;2023-08-06T06:37:33;0.60;;;0.60;;
35897;SDS011;21997;47.118;15.346;2023-08-06T06:39:58;1.37;;;0.80;;
35897;SDS011;21997;47.118;15.346;2023-08-06T06:42:23;0.80;;;0.80;;
35897;SDS011;21997;47.118;15.346;2023-08-06T06:44:49;2.20;;;0.80;;
35897;SDS011;21997;47.118;15.346;2023-08-06T06:47:14;1.00;;;0.80;;
35897;SDS011;21997;47.118;15.346;2023-08-06T06:49:40;0.83;;;0.83;;
35897;SDS011;21997;47.118;15.346;2023-08-06T06:52:05;2.57;;;0.80;;
35897;SDS011;21997;47.118;15.346;2023-08-06T06:54:31;0.60;;;0.60;;
35897;SDS011;21997;47.118;15.346;2023-08-06T06:56:56;0.73;;;0.73;;
35897;SDS011;21997;47.118;15.346;2023-08-06T06:59:22;1.33;;;0.87;;
35897;SDS011;21997;47.118;15.346;2023-08-06T07:01:47;0.60;;;0.50;;
35897;SDS011;21997;47.118;15.346;2023-08-06T07:04:13;1.40;;;0.77;;
35897;SDS011;21997;47.118;15.346;2023-08-06T07:06:38;0.80;;;0.70;;
35897;SDS011;21997;47.118;15.346;2023-08-06T07:09:03;0.60;;;0.60;;
35897;SDS011;21997;47.118;15.346;2023-08-06T07:11:29;1.20;;;0.70;;
35897;SDS011;21997;47.118;15.346;2023-08-06T07:13:58;0.60;;;0.57;;
35897;SDS011;21997;47.118;15.346;2023-08-06T07:16:24;0.70;;;0.70;;
35897;SDS011;21997;47.118;15.346;2023-08-06T07:18:50;2.77;;;1.00;;
35897;SDS011;21997;47.118;15.346;2023-08-06T07:21:17;2.60;;;1.20;;
35897;SDS011;21997;47.118;15.346;2023-08-06T07:23:42;0.93;;;0.93;;
35897;SDS011;21997;47.118;15.346;2023-08-06T07:26:08;1.17;;;1.07;;
35897;SDS011;21997;47.118;15.346;2023-08-06T07:28:34;0.80;;;0.80;;
35897;SDS011;21997;47.118;15.346;2023-08-06T07:30:59;0.73;;;0.73;;
35897;SDS011;21997;47.118;15.346;2023-08-06T07:33:25;1.47;;;0.87;;
35897;SDS011;21997;47.118;15.346;2023-08-06T07:35:50;1.20;;;0.87;;
35897;SDS011;21997;47.118;15.346;2023-08-06T07:38:15;1.50;;;0.70;;
35897;SDS011;21997;47.118;15.346;2023-08-06T07:40:42;1.27;;;0.90;;
35897;SDS011;21997;47.118;15.346;2023-08-06T07:43:07;0.60;;;0.60;;
35897;SDS011;21997;47.118;15.346;2023-08-06T07:45:36;1.33;;;0.77;;
35897;SDS011;21997;47.118;15.346;2023-08-06T07:48:03;0.50;;;0.50;;
35897;SDS011;21997;47.118;15.346;2023-08-06T07:50:28;0.83;;;0.40;;
35897;SDS011;21997;47.118;15.346;2023-08-06T07:52:54;0.50;;;0.30;;
35897;SDS011;21997;47.118;15.346;2023-08-06T07:55:19;0.50;;;0.30;;
35897;SDS011;21997;47.118;15.346;2023-08-06T07:57:45;0.40;;;0.40;;
35897;SDS011;21997;47.118;15.346;2023-08-06T08:00:10;0.60;;;0.40;;
35897;SDS011;21997;47.118;15.346;2023-08-06T08:02:36;0.40;;;0.40;;
35897;SDS011;21997;47.118;15.346;2023-08-06T08:05:01;0.40;;;0.40;;
35897;SDS011;21997;47.118;15.346;2023-08-06T08:07:27;0.30;;;0.30;;
35897;SDS011;21997;47.118;15.346;2023-08-06T08:09:55;0.50;;;0.50;;
35897;SDS011;21997;47.118;15.346;2023-08-06T08:12:20;0.93;;;0.33;;
35897;SDS011;21997;47.118;15.346;2023-08-06T08:14:46;0.30;;;0.30;;
35897;SDS011;21997;47.118;15.346;2023-08-06T08:17:11;0.63;;;0.30;;
35897;SDS011;21997;47.118;15.346;2023-08-06T08:19:37;0.77;;;0.33;;
35897;SDS011;21997;47.118;15.346;2023-08-06T08:22:02;0.20;;;0.20;;
35897;SDS011;21997;47.118;15.346;2023-08-06T08:24:29;0.23;;;0.23;;
35897;SDS011;21997;47.118;15.346;2023-08-06T08:26:58;0.43;;;0.43;;
35897;SDS011;21997;47.118;15.346;2023-08-06T08:29:23;0.30;;;0.10;;
35897;SDS011;21997;47.118;15.346;2023-08-06T08:31:49;0.20;;;0.20;;
35897;SDS011;21997;47.118;15.346;2023-08-06T08:34:15;0.20;;;0.20;;
35897;SDS011;21997;47.118;15.346;2023-08-06T08:36:41;0.20;;;0.20;;
35897;SDS011;21997;47.118;15.346;2023-08-06T08:39:07;0.30;;;0.20;;
35897;SDS011;21997;47.118;15.346;2023-08-06T08:41:33;0.20;;;0.20;;
35897;SDS011;21997;47.118;15.346;2023-08-06T08:43:58;0.20;;;0.20;;
35897;SDS011;21997;47.118;15.346;2023-08-06T08:46:31;0.27;;;0.20;;
35897;SDS011;21997;47.118;15.346;2023-08-06T08:48:57;0.77;;;0.30;;
35897;SDS011;21997;47.118;15.346;2023-08-06T08:51:24;0.23;;;0.20;;
35897;SDS011;21997;47.118;15.346;2023-08-06T08:53:51;0.57;;;0.40;;
35897;SDS011;21997;47.118;15.346;2023-08-06T08:56:18;0.60;;;0.40;;
35897;SDS011;21997;47.118;15.346;2023-08-06T08:58:44;0.20;;;0.20;;
35897;SDS011;21997;47.118;15.346;2023-08-06T09:01:10;0.57;;;0.50;;
35897;SDS011;21997;47.118;15.346;2023-08-06T09:03:36;0.50;;;0.50;;
35897;SDS011;21997;47.118;15.346;2023-08-06T09:06:01;0.87;;;0.63;;
35897;SDS011;21997;47.118;15.346;2023-08-06T09:08:30;2.63;;;1.57;;
35897;SDS011;21997;47.118;15.346;2023-08-06T09:11:03;3.27;;;1.30;;
35897;SDS011;21997;47.118;15.346;2023-08-06T09:13:29;6.20;;;2.50;;
35897;SDS011;21997;47.118;15.346;2023-08-06T09:15:55;1.83;;;1.33;;
35897;SDS011;21997;47.118;15.346;2023-08-06T09:18:30;2.20;;;1.40;;
35897;SDS011;21997;47.118;15.346;2023-08-06T09:20:56;2.77;;;1.50;;
35897;SDS011;21997;47.118;15.346;2023-08-06T09:23:29;1.47;;;1.17;;
35897;SDS011;21997;47.118;15.346;2023-08-06T09:25:55;13.40;;;4.43;;
35897;SDS011;21997;47.118;15.346;2023-08-06T09:28:21;1.10;;;0.80;;
35897;SDS011;21997;47.118;15.346;2023-08-06T09:30:49;1.20;;;0.87;;
35897;SDS011;21997;47.118;15.346;2023-08-06T09:33:17;1.60;;;1.20;;
35897;SDS011;21997;47.118;15.346;2023-08-06T09:35:43;1.20;;;1.10;;
35897;SDS011;21997;47.118;15.346;2023-08-06T09:38:10;0.87;;;0.80;;
35897;SDS011;21997;47.118;15.346;2023-08-06T09:40:36;3.77;;;1.10;;
35897;SDS011;21997;47.118;15.346;2023-08-06T09:43:02;0.90;;;0.77;;
35897;SDS011;21997;47.118;15.346;2023-08-06T09:45:30;1.17;;;1.07;;
35897;SDS011;21997;47.118;15.346;2023-08-06T09:48:05;1.60;;;1.20;;
35897;SDS011;21997;47.118;15.346;2023-08-06T09:50:32;1.50;;;1.40;;
35897;SDS011;21997;47.118;15.346;2023-08-06T09:53:01;0.77;;;0.77;;
35897;SDS011;21997;47.118;15.346;2023-08-06T09:55:27;2.93;;;1.00;;
35897;SDS011;21997;47.118;15.346;2023-08-06T09:57:53;1.33;;;0.90;;
35897;SDS011;21997;47.118;15.346;2023-08-06T10:00:19;1.07;;;0.90;;
35897;SDS011;21997;47.118;15.346;2023-08-06T10:02:45;2.13;;;0.60;;
35897;SDS011;21997;47.118;15.346;2023-08-06T10:05:32;1.00;;;0.83;;
35897;SDS011;21997;47.118;15.346;2023-08-06T10:07:58;1.80;;;0.97;;
35897;SDS011;21997;47.118;15.346;2023-08-06T10:10:24;2.73;;;0.80;;
35897;SDS011;21997;47.118;15.346;2023-08-06T10:12:51;2.53;;;0.70;;
35897;SDS011;21997;47.118;15.346;2023-08-06T10:15:20;1.00;;;0.90;;
35897;SDS011;21997;47.118;15.346;2023-08-06T10:17:47;0.80;;;0.80;;
35897;SDS011;21997;47.118;15.346;2023-08-06T10:20:15;0.70;;;0.50;;
35897;SDS011;21997;47.118;15.346;2023-08-06T10:22:44;0.43;;;0.40;;
35897;SDS011;21997;47.118;15.346;2023-08-06T10:25:16;0.93;;;0.50;;
35897;SDS011;21997;47.118;15.346;2023-08-06T10:30:26;0.67;;;0.50;;
35897;SDS011;21997;47.118;15.346;2023-08-06T10:33:00;0.30;;;0.30;;
35897;SDS011;21997;47.118;15.346;2023-08-06T10:35:27;0.40;;;0.37;;
35897;SDS011;21997;47.118;15.346;2023-08-06T10:37:57;0.50;;;0.30;;
35897;SDS011;21997;47.118;15.346;2023-08-06T10:40:23;0.90;;;0.80;;
35897;SDS011;21997;47.118;15.346;2023-08-06T10:42:49;0.50;;;0.47;;
35897;SDS011;21997;47.118;15.346;2023-08-06T10:45:15;0.53;;;0.53;;
35897;SDS011;21997;47.118;15.346;2023-08-06T10:47:42;4.93;;;0.50;;
35897;SDS011;21997;47.118;15.346;2023-08-06T10:50:10;0.43;;;0.43;;
35897;SDS011;21997;47.118;15.346;2023-08-06T10:52:37;1.90;;;0.50;;
35897;SDS011;21997;47.118;15.346;2023-08-06T10:55:02;0.57;;;0.30;;
35897;SDS011;21997;47.118;15.346;2023-08-06T10:57:28;0.30;;;0.30;;
35897;SDS011;21997;47.118;15.346;2023-08-06T10:59:53;0.60;;;0.40;;
35897;SDS011;21997;47.118;15.346;2023-08-06T11:02:19;1.70;;;0.40;;
35897;SDS011;21997;47.118;15.346;2023-08-06T11:04:44;0.30;;;0.30;;
35897;SDS011;21997;47.118;15.346;2023-08-06T11:07:10;0.70;;;0.70;;
35897;SDS011;21997;47.118;15.346;2023-08-06T11:09:35;0.27;;;0.27;;
35897;SDS011;21997;47.118;15.346;2023-08-06T11:12:01;0.40;;;0.40;;
35897;SDS011;21997;47.118;15.346;2023-08-06T11:14:26;0.60;;;0.53;;
35897;SDS011;21997;47.118;15.346;2023-08-06T11:16:51;1.27;;;0.50;;
35897;SDS011;21997;47.118;15.346;2023-08-06T11:19:17;1.10;;;0.40;;
35897;SDS011;21997;47.118;15.346;2023-08-06T11:21:43;0.37;;;0.37;;
35897;SDS011;21997;47.118;15.346;2023-08-06T11:24:12;0.50;;;0.50;;
35897;SDS011;21997;47.118;15.346;2023-08-06T11:26:37;0.40;;;0.40;;
35897;SDS011;21997;47.118;15.346;2023-08-06T11:29:05;4.63;;;0.40;;
35897;SDS011;21997;47.118;15.346;2023-08-06T11:31:30;1.00;;;0.47;;
35897;SDS011;21997;47.118;15.346;2023-08-06T11:33:55;0.60;;;0.40;;
35897;SDS011;21997;47.118;15.346;2023-08-06T11:36:34;0.80;;;0.80;;
35897;SDS011;21997;47.118;15.346;2023-08-06T11:39:04;0.40;;;0.37;;
35897;SDS011;21997;47.118;15.346;2023-08-06T11:41:33;0.40;;;0.40;;
35897;SDS011;21997;47.118;15.346;2023-08-06T11:43:59;0.57;;;0.57;;
35897;SDS011;21997;47.118;15.346;2023-08-06T11:46:24;0.53;;;0.50;;
35897;SDS011;21997;47.118;15.346;2023-08-06T11:48:51;0.60;;;0.57;;
35897;SDS011;21997;47.118;15.346;2023-08-06T11:51:24;0.30;;;0.20;;
35897;SDS011;21997;47.118;15.346;2023-08-06T11:53:57;1.43;;;0.50;;
35897;SDS011;21997;47.118;15.346;2023-08-06T11:56:24;0.60;;;0.40;;
35897;SDS011;21997;47.118;15.346;2023-08-06T11:58:51;0.60;;;0.57;;
35897;SDS011;21997;47.118;15.346;2023-08-06T12:01:20;1.33;;;0.60;;
35897;SDS011;21997;47.118;15.346;2023-08-06T12:07:29;1.10;;;0.50;;
35897;SDS011;21997;47.118;15.346;2023-08-06T12:10:13;0.40;;;0.40;;
35897;SDS011;21997;47.118;15.346;2023-08-06T12:12:41;0.50;;;0.40;;
35897;SDS011;21997;47.118;15.346;2023-08-06T12:15:07;0.63;;;0.37;;
35897;SDS011;21997;47.118;15.346;2023-08-06T12:17:34;0.40;;;0.20;;
35897;SDS011;21997;47.118;15.346;2023-08-06T12:20:06;0.43;;;0.37;;
35897;SDS011;21997;47.118;15.346;2023-08-06T12:22:55;0.60;;;0.30;;
35897;SDS011;21997;47.118;15.346;2023-08-06T12:29:06;0.73;;;0.30;;
35897;SDS011;21997;47.118;15.346;2023-08-06T12:31:34;0.27;;;0.27;;
35897;SDS011;21997;47.118;15.346;2023-08-06T12:34:00;0.30;;;0.23;;
35897;SDS011;21997;47.118;15.346;2023-08-06T12:36:25;0.37;;;0.30;;
35897;SDS011;21997;47.118;15.346;2023-08-06T12:38:51;0.10;;;0.10;;
35897;SDS011;21997;47.118;15.346;2023-08-06T12:41:17;0.83;;;0.33;;
35897;SDS011;21997;47.118;15.346;2023-08-06T12:44:20;0.90;;;0.30;;
35897;SDS011;21997;47.118;15.346;2023-08-06T12:46:51;1.60;;;0.40;;
35897;SDS011;21997;47.118;15.346;2023-08-06T12:49:18;0.60;;;0.30;;
35897;SDS011;21997;47.118;15.346;2023-08-06T12:51:46;0.20;;;0.20;;
35897;SDS011;21997;47.118;15.346;2023-08-06T12:57:33;0.70;;;0.50;;
35897;SDS011;21997;47.118;15.346;2023-08-06T13:12:59;4.63;;;3.37;;
35897;SDS011;21997;47.118;15.346;2023-08-06T13:15:25;9.33;;;6.20;;
35897;SDS011;21997;47.118;15.346;2023-08-06T13:18:11;3.20;;;2.40;;
35897;SDS011;21997;47.118;15.346;2023-08-06T13:20:39;4.77;;;3.57;;
35897;SDS011;21997;47.118;15.346;2023-08-06T13:23:05;1.37;;;1.27;;
35897;SDS011;21997;47.118;15.346;2023-08-06T13:25:31;0.40;;;0.30;;
35897;SDS011;21997;47.118;15.346;2023-08-06T13:28:02;1.50;;;0.20;;
35897;SDS011;21997;47.118;15.346;2023-08-06T13:30:30;0.23;;;0.20;;
35897;SDS011;21997;47.118;15.346;2023-08-06T13:32:56;0.10;;;0.10;;
35897;SDS011;21997;47.118;15.346;2023-08-06T13:35:22;0.40;;;0.23;;
35897;SDS011;21997;47.118;15.346;2023-08-06T13:37:48;0.37;;;0.20;;
35897;SDS011;21997;47.118;15.346;2023-08-06T13:40:14;0.63;;;0.20;;
35897;SDS011;21997;47.118;15.346;2023-08-06T13:42:39;0.30;;;0.20;;
35897;SDS011;21997;47.118;15.346;2023-08-06T13:45:06;0.63;;;0.30;;
35897;SDS011;21997;47.118;15.346;2023-08-06T13:47:32;0.90;;;0.20;;
35897;SDS011;21997;47.118;15.346;2023-08-06T13:49:58;0.40;;;0.10;;
35897;SDS011;21997;47.118;15.346;2023-08-06T13:52:25;0.30;;;0.10;;
35897;SDS011;21997;47.118;15.346;2023-08-06T13:54:51;0.63;;;0.43;;
35897;SDS011;21997;47.118;15.346;2023-08-06T13:57:17;0.47;;;0.30;;
35897;SDS011;21997;47.118;15.346;2023-08-06T13:59:43;0.83;;;0.30;;
35897;SDS011;21997;47.118;15.346;2023-08-06T14:02:09;0.40;;;0.27;;
35897;SDS011;21997;47.118;15.346;2023-08-06T14:04:35;0.33;;;0.20;;
35897;SDS011;21997;47.118;15.346;2023-08-06T14:07:02;0.63;;;0.30;;
35897;SDS011;21997;47.118;15.346;2023-08-06T14:09:29;0.70;;;0.20;;
35897;SDS011;21997;47.118;15.346;2023-08-06T14:11:55;0.27;;;0.27;;
35897;SDS011;21997;47.118;15.346;2023-08-06T14:14:21;0.30;;;0.27;;
35897;SDS011;21997;47.118;15.346;2023-08-06T14:16:51;0.50;;;0.30;;
35897;SDS011;21997;47.118;15.346;2023-08-06T14:19:17;0.30;;;0.20;;
35897;SDS011;21997;47.118;15.346;2023-08-06T14:21:43;0.37;;;0.30;;
35897;SDS011;21997;47.118;15.346;2023-08-06T14:24:09;0.50;;;0.20;;
35897;SDS011;21997;47.118;15.346;2023-08-06T14:26:34;0.60;;;0.30;;
35897;SDS011;21997;47.118;15.346;2023-08-06T14:29:01;0.40;;;0.20;;
35897;SDS011;21997;47.118;15.346;2023-08-06T14:31:28;0.70;;;0.30;;
35897;SDS011;21997;47.118;15.346;2023-08-06T14:33:54;0.70;;;0.40;;
35897;SDS011;21997;47.118;15.346;2023-08-06T14:36:21;0.30;;;0.30;;
35897;SDS011;21997;47.118;15.346;2023-08-06T14:38:47;1.37;;;0.20;;
35897;SDS011;21997;47.118;15.346;2023-08-06T14:41:13;0.20;;;0.20;;
35897;SDS011;21997;47.118;15.346;2023-08-06T14:43:39;1.47;;;0.57;;
35897;SDS011;21997;47.118;15.346;2023-08-06T14:46:05;0.30;;;0.20;;
35897;SDS011;21997;47.118;15.346;2023-08-06T14:48:30;0.10;;;0.10;;
35897;SDS011;21997;47.118;15.346;2023-08-06T14:50:56;0.00;;;0.00;;
35897;SDS011;21997;47.118;15.346;2023-08-06T14:53:22;0.10;;;0.00;;
35897;SDS011;21997;47.118;15.346;2023-08-06T14:55:48;1.00;;;0.17;;
35897;SDS011;21997;47.118;15.346;2023-08-06T14:58:14;0.13;;;0.10;;
35897;SDS011;21997;47.118;15.346;2023-08-06T15:00:39;0.27;;;0.20;;
35897;SDS011;21997;47.118;15.346;2023-08-06T15:03:05;0.30;;;0.10;;
35897;SDS011;21997;47.118;15.346;2023-08-06T15:05:30;0.33;;;0.10;;
35897;SDS011;21997;47.118;15.346;2023-08-06T15:07:57;0.20;;;0.10;;
35897;SDS011;21997;47.118;15.346;2023-08-06T15:10:22;0.10;;;0.10;;